Time;durP1;ratioP1;P1;durP2;ratioP2;P2;SDS_P1;SDS_P2;PMS_P1;PMS_P2;Temp;Humidity;BMP_temperature;BMP_pressure;BME280_temperature;BME280_humidity;BME280_pressure;Samples;Min_cycle;Max_cycle;Signal;HPM_P1;HPM_P2
2021/03/18 00:01:22;;;;;;;22.20;8.05;;;;;;;;;;4980567;28;20038;-87
2021/03/18 00:03:49;;;;;;;26.63;7.95;;;;;;;;;;4978877;28;20058;-86
2021/03/18 00:06:15;;;;;;;20.15;8.45;;;;;;;;;;4978069;28;20027;-84
2021/03/18 00:08:43;;;;;;;19.63;7.50;;;;;;;;;;4978898;28;20023;-88
2021/03/18 00:11:11;;;;;;;20.38;7.93;;;;;;;;;;4979392;28;20102;-93
2021/03/18 00:13:39;;;;;;;22.33;7.78;;;;;;;;;;4979058;28;20050;-88
2021/03/18 00:16:06;;;;;;;18.10;6.80;;;;;;;;;;4979705;28;20070;-87
2021/03/18 00:18:49;;;;;;;20.25;7.32;;;;;;;;;;4977717;28;20050;-88
2021/03/18 00:21:16;;;;;;;20.25;7.15;;;;;;;;;;4977868;28;20074;-86
2021/03/18 00:23:43;;;;;;;16.52;7.07;;;;;;;;;;4979012;28;20034;-85
2021/03/18 00:26:09;;;;;;;22.20;6.72;;;;;;;;;;4978821;28;20495;-87
2021/03/18 00:28:36;;;;;;;22.33;7.40;;;;;;;;;;4978476;28;20028;-86
2021/03/18 00:31:03;;;;;;;21.73;7.47;;;;;;;;;;4978404;28;20072;-88
2021/03/18 00:33:29;;;;;;;20.27;7.55;;;;;;;;;;4962777;28;20038;-89
2021/03/18 00:35:56;;;;;;;14.75;6.32;;;;;;;;;;4979438;28;20066;-89
2021/03/18 00:38:22;;;;;;;17.10;6.85;;;;;;;;;;4978163;28;20035;-90
2021/03/18 00:40:51;;;;;;;17.17;6.28;;;;;;;;;;4979284;28;20081;-88
2021/03/18 00:43:18;;;;;;;20.58;7.93;;;;;;;;;;4979177;28;20495;-88
2021/03/18 00:45:47;;;;;;;18.60;7.45;;;;;;;;;;4979862;28;20038;-88
2021/03/18 00:48:13;;;;;;;16.63;6.53;;;;;;;;;;4979285;28;20054;-88
2021/03/18 00:50:44;;;;;;;23.15;7.07;;;;;;;;;;4990976;28;20027;-86
2021/03/18 00:53:11;;;;;;;15.70;6.53;;;;;;;;;;4983337;28;20482;-89
2021/03/18 00:55:38;;;;;;;20.33;7.38;;;;;;;;;;4978055;28;20022;-89
2021/03/18 00:58:04;;;;;;;16.67;6.50;;;;;;;;;;4978986;28;20082;-89
2021/03/18 01:00:33;;;;;;;17.65;6.13;;;;;;;;;;4978155;28;20034;-88
2021/03/18 01:02:59;;;;;;;18.70;5.80;;;;;;;;;;4977674;28;20448;-88
2021/03/18 01:05:28;;;;;;;18.60;4.95;;;;;;;;;;4978040;28;20131;-88
2021/03/18 01:07:54;;;;;;;16.00;5.63;;;;;;;;;;4978415;28;20027;-89
2021/03/18 01:10:21;;;;;;;18.75;6.65;;;;;;;;;;4977867;28;20464;-89
2021/03/18 01:12:47;;;;;;;16.85;5.60;;;;;;;;;;4977737;28;20035;-89
2021/03/18 01:15:14;;;;;;;17.08;6.18;;;;;;;;;;4979465;28;20380;-90
2021/03/18 01:17:40;;;;;;;13.35;6.13;;;;;;;;;;4979651;28;20026;-90
2021/03/18 01:20:09;;;;;;;15.45;6.15;;;;;;;;;;4977582;28;20027;-90
2021/03/18 01:22:36;;;;;;;16.45;6.22;;;;;;;;;;4977834;28;20042;-89
2021/03/18 01:25:02;;;;;;;14.98;6.35;;;;;;;;;;4977693;28;20043;-89
2021/03/18 01:27:28;;;;;;;17.60;6.78;;;;;;;;;;4978000;28;20039;-89
2021/03/18 01:29:54;;;;;;;17.75;7.32;;;;;;;;;;4977777;28;20034;-88
2021/03/18 01:32:20;;;;;;;19.35;6.57;;;;;;;;;;4978034;28;20058;-87
2021/03/18 01:34:47;;;;;;;21.63;7.05;;;;;;;;;;4978097;28;20037;-88
2021/03/18 01:37:13;;;;;;;15.10;6.25;;;;;;;;;;4978057;28;20038;-88
2021/03/18 01:39:40;;;;;;;15.35;6.15;;;;;;;;;;4979274;28;20031;-88
2021/03/18 01:42:06;;;;;;;16.80;5.63;;;;;;;;;;4979327;28;20045;-89
2021/03/18 01:44:32;;;;;;;13.35;5.65;;;;;;;;;;4979002;28;20154;-88
2021/03/18 01:46:59;;;;;;;13.90;5.53;;;;;;;;;;4990080;28;20038;-88
2021/03/18 01:49:25;;;;;;;15.35;6.25;;;;;;;;;;4982666;28;20030;-89
2021/03/18 01:51:51;;;;;;;18.17;6.75;;;;;;;;;;4979126;28;20023;-89
2021/03/18 01:54:18;;;;;;;18.38;6.90;;;;;;;;;;4977445;28;20431;-89
2021/03/18 01:56:44;;;;;;;20.80;7.47;;;;;;;;;;4978925;28;20023;-89
2021/03/18 01:59:11;;;;;;;21.25;8.05;;;;;;;;;;4978860;28;20134;-89
2021/03/18 02:01:37;;;;;;;25.48;6.82;;;;;;;;;;4976526;28;20035;-89
2021/03/18 02:04:04;;;;;;;17.13;6.50;;;;;;;;;;4978068;28;20050;-88
2021/03/18 02:06:30;;;;;;;19.13;6.80;;;;;;;;;;4976312;28;20054;-89
2021/03/18 02:08:57;;;;;;;17.85;6.93;;;;;;;;;;4977382;28;20023;-88
2021/03/18 02:11:23;;;;;;;26.27;7.10;;;;;;;;;;4976792;28;20034;-88
2021/03/18 02:13:49;;;;;;;16.02;6.57;;;;;;;;;;4976594;28;20388;-88
2021/03/18 02:16:16;;;;;;;19.08;6.95;;;;;;;;;;4975886;28;20031;-88
2021/03/18 02:18:42;;;;;;;20.60;6.93;;;;;;;;;;4976792;28;20050;-89
2021/03/18 02:21:38;;;;;;;13.60;6.13;;;;;;;;;;4976424;28;20514;-87
2021/03/18 02:24:10;;;;;;;22.38;7.05;;;;;;;;;;4942380;28;20040;-90
2021/03/18 02:26:55;;;;;;;17.55;6.95;;;;;;;;;;4977024;28;20043;-89
2021/03/18 02:29:39;;;;;;;16.67;5.85;;;;;;;;;;4977030;28;20031;-88
2021/03/18 02:32:24;;;;;;;17.85;6.78;;;;;;;;;;4976159;28;20067;-88
2021/03/18 02:35:03;;;;;;;16.40;6.90;;;;;;;;;;4976456;28;20023;-88
2021/03/18 02:37:30;;;;;;;15.05;6.18;;;;;;;;;;4976504;28;20043;-88
2021/03/18 02:40:00;;;;;;;16.65;6.78;;;;;;;;;;4983280;28;20038;-87
2021/03/18 02:42:27;;;;;;;21.40;7.00;;;;;;;;;;4983098;28;20031;-88
2021/03/18 02:44:56;;;;;;;18.73;6.53;;;;;;;;;;4976870;28;20130;-89
2021/03/18 02:47:24;;;;;;;23.23;7.97;;;;;;;;;;4976138;28;20027;-88
2021/03/18 02:49:51;;;;;;;18.50;6.97;;;;;;;;;;4977372;28;20031;-87
2021/03/18 02:52:21;;;;;;;20.50;7.25;;;;;;;;;;4977046;28;20062;-89
2021/03/18 02:54:47;;;;;;;21.83;6.78;;;;;;;;;;4978123;28;20023;-87
2021/03/18 02:57:15;;;;;;;19.65;6.85;;;;;;;;;;4976399;28;20069;-88
2021/03/18 02:59:43;;;;;;;17.80;6.30;;;;;;;;;;4976429;28;20400;-88
2021/03/18 03:02:14;;;;;;;12.82;5.18;;;;;;;;;;4977178;28;20161;-89
2021/03/18 03:04:41;;;;;;;17.83;7.18;;;;;;;;;;4978659;28;20026;-88
2021/03/18 03:07:08;;;;;;;19.52;7.97;;;;;;;;;;4976134;28;20058;-86
2021/03/18 03:09:35;;;;;;;16.90;6.40;;;;;;;;;;4976440;28;20031;-88
2021/03/18 03:12:02;;;;;;;20.15;6.40;;;;;;;;;;4977135;28;20090;-86
2021/03/18 03:14:28;;;;;;;18.50;6.63;;;;;;;;;;4976247;28;20031;-88
2021/03/18 03:16:55;;;;;;;16.08;6.35;;;;;;;;;;4976704;28;20472;-88
2021/03/18 03:19:22;;;;;;;17.45;6.53;;;;;;;;;;4975278;28;20027;-88
2021/03/18 03:21:49;;;;;;;21.48;6.43;;;;;;;;;;4976037;28;20503;-83
2021/03/18 03:24:15;;;;;;;17.67;6.03;;;;;;;;;;4975901;28;20089;-87
2021/03/18 03:26:42;;;;;;;16.50;6.55;;;;;;;;;;4975757;28;20066;-87
2021/03/18 03:29:09;;;;;;;16.65;6.40;;;;;;;;;;4975481;28;20027;-88
2021/03/18 03:31:36;;;;;;;17.75;6.75;;;;;;;;;;4976078;28;20030;-87
2021/03/18 03:34:05;;;;;;;15.15;6.28;;;;;;;;;;4977428;28;20015;-87
2021/03/18 03:36:33;;;;;;;15.48;6.32;;;;;;;;;;4975572;28;20487;-88
2021/03/18 03:38:59;;;;;;;15.45;5.72;;;;;;;;;;4976923;28;20341;-87
2021/03/18 03:41:26;;;;;;;16.13;6.30;;;;;;;;;;4976304;28;20146;-87
2021/03/18 03:43:52;;;;;;;13.75;5.75;;;;;;;;;;4977552;28;20023;-88
2021/03/18 03:46:18;;;;;;;19.42;6.47;;;;;;;;;;4976736;28;20039;-85
2021/03/18 03:48:45;;;;;;;17.63;6.15;;;;;;;;;;4975719;28;20023;-88
2021/03/18 03:51:11;;;;;;;17.75;6.40;;;;;;;;;;4975224;28;20455;-88
2021/03/18 03:53:44;;;;;;;13.85;6.07;;;;;;;;;;4975692;28;20480;-87
2021/03/18 03:56:29;;;;;;;21.52;6.28;;;;;;;;;;4978747;28;20484;-88
2021/03/18 03:58:55;;;;;;;13.80;5.05;;;;;;;;;;4975679;28;20093;-87
2021/03/18 04:01:26;;;;;;;11.93;4.85;;;;;;;;;;4975463;28;20085;-88
2021/03/18 04:03:54;;;;;;;20.40;5.93;;;;;;;;;;4976416;28;20023;-88
2021/03/18 04:06:21;;;;;;;16.60;5.38;;;;;;;;;;4975959;28;20073;-87
2021/03/18 04:08:48;;;;;;;14.73;5.25;;;;;;;;;;4975774;28;20070;-88
2021/03/18 04:11:15;;;;;;;12.48;4.53;;;;;;;;;;4975188;28;20047;-89
2021/03/18 04:13:42;;;;;;;13.10;4.53;;;;;;;;;;4975722;28;20104;-88
2021/03/18 04:16:08;;;;;;;14.40;4.85;;;;;;;;;;4976134;28;20031;-87
2021/03/18 04:18:37;;;;;;;10.98;4.88;;;;;;;;;;4978634;28;20089;-88
2021/03/18 04:21:04;;;;;;;12.48;5.50;;;;;;;;;;4974853;28;20034;-88
2021/03/18 04:23:31;;;;;;;13.35;4.63;;;;;;;;;;4974844;28;20027;-88
2021/03/18 04:25:58;;;;;;;11.43;4.18;;;;;;;;;;4974422;28;20055;-87
2021/03/18 04:28:28;;;;;;;6.50;2.97;;;;;;;;;;4973967;28;20027;-88
2021/03/18 04:30:55;;;;;;;9.60;4.10;;;;;;;;;;4974990;28;20051;-87
2021/03/18 04:33:23;;;;;;;9.65;3.58;;;;;;;;;;4978418;28;20023;-87
2021/03/18 04:35:49;;;;;;;6.55;3.47;;;;;;;;;;4980084;28;20031;-88
2021/03/18 04:38:16;;;;;;;8.10;3.55;;;;;;;;;;4978017;28;20085;-87
2021/03/18 04:40:42;;;;;;;8.07;3.47;;;;;;;;;;4978303;28;20031;-86
2021/03/18 04:43:09;;;;;;;6.47;2.78;;;;;;;;;;4979419;28;20085;-88
2021/03/18 04:45:35;;;;;;;7.13;3.03;;;;;;;;;;4977433;28;20038;-86
2021/03/18 04:48:03;;;;;;;7.30;2.97;;;;;;;;;;4978089;28;20030;-87
2021/03/18 04:50:30;;;;;;;8.25;3.50;;;;;;;;;;4980142;28;20104;-87
2021/03/18 04:52:57;;;;;;;10.55;3.50;;;;;;;;;;4979324;28;20033;-87
2021/03/18 04:55:23;;;;;;;6.43;3.05;;;;;;;;;;4977883;28;20023;-86
2021/03/18 04:58:01;;;;;;;6.45;2.95;;;;;;;;;;4979011;28;20440;-87
2021/03/18 05:00:27;;;;;;;7.38;3.22;;;;;;;;;;4977665;28;20030;-87
2021/03/18 05:02:55;;;;;;;6.60;3.08;;;;;;;;;;4977076;28;20464;-88
2021/03/18 05:05:22;;;;;;;8.18;3.05;;;;;;;;;;4977482;28;20035;-86
2021/03/18 05:07:50;;;;;;;7.18;3.42;;;;;;;;;;4977783;28;20109;-85
2021/03/18 05:10:20;;;;;;;6.93;3.20;;;;;;;;;;4977657;28;20566;-88
2021/03/18 05:12:47;;;;;;;9.63;3.40;;;;;;;;;;4977552;28;20054;-88
2021/03/18 05:15:15;;;;;;;8.18;3.55;;;;;;;;;;4977617;28;20027;-88
2021/03/18 05:17:41;;;;;;;6.60;2.88;;;;;;;;;;4977613;28;20122;-87
2021/03/18 05:20:08;;;;;;;6.10;2.28;;;;;;;;;;4977338;28;20138;-83
2021/03/18 05:22:34;;;;;;;8.52;3.30;;;;;;;;;;4992967;28;20077;-82
2021/03/18 05:25:01;;;;;;;9.75;3.33;;;;;;;;;;4975667;28;20042;-85
2021/03/18 05:27:28;;;;;;;7.38;3.50;;;;;;;;;;4975819;28;20050;-82
2021/03/18 05:29:54;;;;;;;6.25;3.20;;;;;;;;;;4976933;28;20062;-86
2021/03/18 05:32:20;;;;;;;10.55;3.40;;;;;;;;;;4978848;28;20078;-87
2021/03/18 05:34:46;;;;;;;10.88;3.38;;;;;;;;;;4978354;28;20023;-88
2021/03/18 05:37:13;;;;;;;17.38;6.63;;;;;;;;;;4976291;28;20042;-86
2021/03/18 05:39:39;;;;;;;19.85;7.72;;;;;;;;;;4971475;28;20022;-88
2021/03/18 05:42:06;;;;;;;41.00;12.57;;;;;;;;;;4966660;28;20031;-89
2021/03/18 05:44:32;;;;;;;130.88;35.05;;;;;;;;;;4974519;28;20428;-82
2021/03/18 05:46:59;;;;;;;55.00;16.30;;;;;;;;;;4960508;28;20079;-90
2021/03/18 05:49:27;;;;;;;216.88;54.20;;;;;;;;;;4958309;29;20031;-88
2021/03/18 05:51:54;;;;;;;139.77;40.40;;;;;;;;;;4964664;28;20503;-89
2021/03/18 05:54:20;;;;;;;14.45;8.13;;;;;;;;;;4968574;28;20027;-85
2021/03/18 05:56:48;;;;;;;7.22;2.90;;;;;;;;;;4975354;28;20041;-85
2021/03/18 05:59:15;;;;;;;10.05;4.03;;;;;;;;;;4970924;28;20027;-84
2021/03/18 06:01:41;;;;;;;6.30;3.28;;;;;;;;;;4966840;28;20069;-86
2021/03/18 06:04:07;;;;;;;8.07;4.63;;;;;;;;;;4965452;28;20019;-86
2021/03/18 06:06:35;;;;;;;6.72;3.30;;;;;;;;;;4966295;28;20026;-87
2021/03/18 06:09:01;;;;;;;7.25;3.35;;;;;;;;;;4967151;28;20042;-83
2021/03/18 06:11:27;;;;;;;7.00;3.50;;;;;;;;;;4965139;28;20062;-87
2021/03/18 06:13:53;;;;;;;8.10;3.22;;;;;;;;;;4967168;28;20037;-85
2021/03/18 06:16:20;;;;;;;7.78;3.05;;;;;;;;;;4962453;28;20038;-80
2021/03/18 06:18:46;;;;;;;10.70;3.50;;;;;;;;;;4956459;29;20027;-82
2021/03/18 06:21:12;;;;;;;7.07;3.53;;;;;;;;;;4964796;28;20066;-82
2021/03/18 06:23:38;;;;;;;12.57;3.63;;;;;;;;;;4978137;28;20027;-79
2021/03/18 06:26:04;;;;;;;9.77;3.95;;;;;;;;;;4979671;28;20050;-81
2021/03/18 06:28:32;;;;;;;7.05;3.25;;;;;;;;;;4975119;28;20443;-83
2021/03/18 06:31:01;;;;;;;9.38;4.28;;;;;;;;;;4974909;28;20092;-87
2021/03/18 06:33:47;;;;;;;22.08;9.98;;;;;;;;;;4975133;28;20121;-83
2021/03/18 06:36:27;;;;;;;11.18;5.70;;;;;;;;;;4973447;28;20090;-80
2021/03/18 06:39:14;;;;;;;18.02;8.00;;;;;;;;;;4979837;28;20118;-79
2021/03/18 06:41:49;;;;;;;17.02;7.15;;;;;;;;;;4975126;28;20061;-78
2021/03/18 06:44:23;;;;;;;38.97;15.32;;;;;;;;;;4976912;28;20034;-91
2021/03/18 06:46:50;;;;;;;25.42;10.55;;;;;;;;;;4968613;28;20098;-92
2021/03/18 07:04:52;;;;;;;10.20;5.32;;;;;;;;;;4981952;28;20051;-89
2021/03/18 07:07:20;;;;;;;12.00;5.85;;;;;;;;;;4990227;28;20105;-89
2021/03/18 07:09:47;;;;;;;10.52;4.63;;;;;;;;;;4977129;28;20026;-89
2021/03/18 07:12:15;;;;;;;9.80;4.45;;;;;;;;;;4975338;28;20034;-88
2021/03/18 07:14:46;;;;;;;12.40;5.40;;;;;;;;;;4976439;28;20471;-90
2021/03/18 07:17:30;;;;;;;11.77;5.97;;;;;;;;;;4977672;28;20038;-89
2021/03/18 07:20:28;;;;;;;8.00;4.25;;;;;;;;;;4976940;28;20034;-89
2021/03/18 07:22:56;;;;;;;10.05;4.25;;;;;;;;;;4943839;28;20042;-89
2021/03/18 07:25:26;;;;;;;10.93;4.70;;;;;;;;;;4976050;28;20027;-91
2021/03/18 07:27:54;;;;;;;9.07;4.40;;;;;;;;;;4975616;28;20066;-91
2021/03/18 07:30:39;;;;;;;9.52;4.07;;;;;;;;;;4976499;28;20042;-94
2021/03/18 07:33:05;;;;;;;10.38;4.70;;;;;;;;;;4975153;28;20034;-87
2021/03/18 07:35:32;;;;;;;9.90;4.85;;;;;;;;;;4974729;28;20027;-88
2021/03/18 07:37:59;;;;;;;8.30;4.00;;;;;;;;;;4974751;28;20030;-88
2021/03/18 07:40:26;;;;;;;9.38;4.50;;;;;;;;;;4992898;28;20031;-86
2021/03/18 07:42:53;;;;;;;11.63;4.68;;;;;;;;;;4994088;28;20514;-86
2021/03/18 07:45:19;;;;;;;8.57;4.43;;;;;;;;;;4993545;28;20391;-85
2021/03/18 07:47:46;;;;;;;9.25;4.53;;;;;;;;;;4994820;28;20026;-85
2021/03/18 07:50:16;;;;;;;10.15;5.07;;;;;;;;;;4994548;28;20387;-85
2021/03/18 07:52:47;;;;;;;8.43;4.53;;;;;;;;;;4994261;28;20130;-84
2021/03/18 07:55:16;;;;;;;12.90;5.07;;;;;;;;;;4995104;28;20054;-85
2021/03/18 07:57:43;;;;;;;10.05;4.57;;;;;;;;;;4994779;28;20027;-85
2021/03/18 08:00:10;;;;;;;8.20;4.45;;;;;;;;;;4993701;28;20030;-86
2021/03/18 08:02:37;;;;;;;9.10;4.38;;;;;;;;;;4993131;28;20475;-87
2021/03/18 08:05:03;;;;;;;9.32;4.95;;;;;;;;;;4995621;28;20117;-87
2021/03/18 08:07:48;;;;;;;12.85;4.93;;;;;;;;;;4997625;28;20034;-87
2021/03/18 08:10:14;;;;;;;8.55;4.40;;;;;;;;;;4997766;28;20105;-87
2021/03/18 08:13:00;;;;;;;9.85;4.82;;;;;;;;;;4998707;28;20027;-95
2021/03/18 08:15:26;;;;;;;8.38;4.07;;;;;;;;;;5000470;28;20034;-89
2021/03/18 08:17:53;;;;;;;9.13;4.50;;;;;;;;;;5000494;28;20387;-88
2021/03/18 08:20:40;;;;;;;9.07;4.68;;;;;;;;;;5000103;28;20027;-89
2021/03/18 08:23:25;;;;;;;12.77;4.68;;;;;;;;;;5000268;28;20439;-89
2021/03/18 08:25:54;;;;;;;7.90;3.85;;;;;;;;;;4999070;28;20386;-91
2021/03/18 08:28:35;;;;;;;9.50;4.25;;;;;;;;;;5004049;28;20027;-89
2021/03/18 08:31:04;;;;;;;9.05;3.97;;;;;;;;;;4999187;28;20126;-95
2021/03/18 08:33:34;;;;;;;11.88;3.70;;;;;;;;;;4998378;28;20019;-89
2021/03/18 08:36:19;;;;;;;8.05;3.95;;;;;;;;;;4998706;28;20031;-87
2021/03/18 08:38:46;;;;;;;10.90;4.40;;;;;;;;;;4997929;28;20038;-89
2021/03/18 08:41:24;;;;;;;8.75;3.63;;;;;;;;;;4997302;28;20081;-89
2021/03/18 08:44:09;;;;;;;8.75;3.78;;;;;;;;;;4997307;28;20116;-88
2021/03/18 08:46:52;;;;;;;9.40;3.90;;;;;;;;;;4997534;28;20080;-88
2021/03/18 08:49:23;;;;;;;7.68;3.50;;;;;;;;;;4994431;28;20030;-89
2021/03/18 08:51:50;;;;;;;10.07;3.65;;;;;;;;;;4999492;28;20050;-87
2021/03/18 08:54:36;;;;;;;8.23;4.00;;;;;;;;;;4998059;28;20049;-87
2021/03/18 08:57:03;;;;;;;8.05;3.92;;;;;;;;;;4981625;28;20027;-89
2021/03/18 08:59:29;;;;;;;7.20;3.35;;;;;;;;;;4976594;28;20030;-87
2021/03/18 09:02:05;;;;;;;6.65;3.63;;;;;;;;;;4987296;28;20111;-86
2021/03/18 09:04:38;;;;;;;8.75;3.85;;;;;;;;;;4997980;28;20061;-84
2021/03/18 09:07:07;;;;;;;6.90;3.67;;;;;;;;;;4998266;28;20407;-86
2021/03/18 09:09:34;;;;;;;6.65;3.25;;;;;;;;;;4996930;28;20023;-85
2021/03/18 09:12:04;;;;;;;6.63;3.30;;;;;;;;;;4998450;28;20394;-86
2021/03/18 09:14:30;;;;;;;5.03;3.00;;;;;;;;;;5000158;28;20026;-86
2021/03/18 09:17:22;;;;;;;5.10;3.00;;;;;;;;;;4997512;28;20027;-87
2021/03/18 09:19:49;;;;;;;8.48;3.58;;;;;;;;;;4994198;28;20038;-86
2021/03/18 09:22:15;;;;;;;7.97;3.70;;;;;;;;;;4984460;28;20031;-86
2021/03/18 09:24:43;;;;;;;7.60;3.42;;;;;;;;;;4980250;28;20062;-86
2021/03/18 09:27:10;;;;;;;6.55;2.90;;;;;;;;;;4977441;28;20376;-87
2021/03/18 09:29:36;;;;;;;5.07;2.70;;;;;;;;;;4979166;28;20066;-87
2021/03/18 09:32:03;;;;;;;6.07;2.65;;;;;;;;;;4978339;28;20050;-87
2021/03/18 09:34:34;;;;;;;5.10;2.97;;;;;;;;;;4978070;28;20033;-86
2021/03/18 09:37:00;;;;;;;5.28;3.00;;;;;;;;;;4977084;28;20023;-87
2021/03/18 09:39:26;;;;;;;5.95;3.33;;;;;;;;;;4976755;28;20031;-86
2021/03/18 09:41:56;;;;;;;5.18;3.13;;;;;;;;;;4976980;28;20026;-87
2021/03/18 09:44:25;;;;;;;6.38;3.03;;;;;;;;;;4976049;28;20074;-86
2021/03/18 09:46:56;;;;;;;8.10;2.90;;;;;;;;;;4978042;28;20073;-93
2021/03/18 09:49:38;;;;;;;6.38;2.65;;;;;;;;;;4976919;28;20031;-88
2021/03/18 09:52:09;;;;;;;5.35;2.90;;;;;;;;;;4977777;28;20027;-88
2021/03/18 09:54:35;;;;;;;4.10;2.38;;;;;;;;;;4977044;28;20066;-86
2021/03/18 09:57:02;;;;;;;6.97;2.47;;;;;;;;;;4978653;28;20031;-90
2021/03/18 09:59:29;;;;;;;4.85;2.33;;;;;;;;;;4980821;28;20050;-88
2021/03/18 10:01:56;;;;;;;8.02;2.40;;;;;;;;;;4988820;28;20041;-86
2021/03/18 10:04:22;;;;;;;4.53;2.30;;;;;;;;;;4995634;28;20120;-88
2021/03/18 10:06:56;;;;;;;4.10;2.13;;;;;;;;;;4995023;28;20019;-88
2021/03/18 10:09:42;;;;;;;5.40;2.40;;;;;;;;;;4996156;28;20085;-88
2021/03/18 10:12:18;;;;;;;4.13;2.00;;;;;;;;;;4994829;28;20066;-88
2021/03/18 10:14:46;;;;;;;5.85;2.10;;;;;;;;;;4995248;28;20121;-89
2021/03/18 10:17:30;;;;;;;7.63;2.42;;;;;;;;;;4995510;28;20026;-87
2021/03/18 10:20:02;;;;;;;3.53;2.10;;;;;;;;;;4995726;28;20031;-88
2021/03/18 10:22:37;;;;;;;3.63;1.95;;;;;;;;;;4995993;28;20034;-88
2021/03/18 10:25:03;;;;;;;3.10;1.90;;;;;;;;;;4995628;28;20029;-88
2021/03/18 10:27:39;;;;;;;4.68;2.53;;;;;;;;;;4994411;28;20030;-90
2021/03/18 10:30:15;;;;;;;5.93;2.28;;;;;;;;;;4996036;28;20026;-89
2021/03/18 10:32:43;;;;;;;4.32;2.22;;;;;;;;;;4995965;28;20040;-88
2021/03/18 10:35:10;;;;;;;5.13;1.80;;;;;;;;;;4995480;28;20361;-87
2021/03/18 10:37:39;;;;;;;3.85;2.00;;;;;;;;;;4996681;28;20029;-87
2021/03/18 10:40:14;;;;;;;4.35;2.20;;;;;;;;;;4995056;28;20030;-87
2021/03/18 10:42:41;;;;;;;3.40;1.85;;;;;;;;;;4996094;28;20026;-95
2021/03/18 10:45:13;;;;;;;4.40;1.77;;;;;;;;;;4995335;28;20030;-88
2021/03/18 10:47:43;;;;;;;5.20;1.70;;;;;;;;;;4995358;28;20095;-89
2021/03/18 10:50:11;;;;;;;5.20;1.80;;;;;;;;;;4995321;28;20125;-87
2021/03/18 10:52:39;;;;;;;5.78;1.90;;;;;;;;;;4995343;28;20494;-86
2021/03/18 10:55:05;;;;;;;3.30;1.83;;;;;;;;;;4995848;28;20073;-86
2021/03/18 10:57:32;;;;;;;3.70;1.80;;;;;;;;;;4996408;28;20026;-85
2021/03/18 11:03:13;;;;;;;5.55;2.13;;;;;;;;;;5015479;28;20121;-90
2021/03/18 11:05:44;;;;;;;5.25;1.80;;;;;;;;;;4998076;28;20026;-95
2021/03/18 11:08:11;;;;;;;5.38;2.03;;;;;;;;;;4997948;28;20037;-93
2021/03/18 11:10:44;;;;;;;3.95;1.70;;;;;;;;;;4998800;28;20069;-96
2021/03/18 11:13:13;;;;;;;2.67;1.48;;;;;;;;;;4996048;28;20100;-94
2021/03/18 11:15:52;;;;;;;4.72;1.58;;;;;;;;;;4998524;28;20026;-93
2021/03/18 11:18:37;;;;;;;4.47;1.73;;;;;;;;;;5001329;28;20018;-96
2021/03/18 11:21:18;;;;;;;3.53;1.80;;;;;;;;;;5008386;28;20034;-95
2021/03/18 11:23:57;;;;;;;3.40;1.67;;;;;;;;;;4992387;28;20463;-93
2021/03/18 11:26:25;;;;;;;3.78;1.80;;;;;;;;;;5000508;28;20049;-94
2021/03/18 11:29:14;;;;;;;4.65;2.00;;;;;;;;;;4997256;28;20033;-95
2021/03/18 11:31:42;;;;;;;4.32;1.90;;;;;;;;;;4998511;28;20419;-96
2021/03/18 11:34:14;;;;;;;3.70;2.15;;;;;;;;;;4997795;28;20031;-96
2021/03/18 11:36:40;;;;;;;4.93;2.55;;;;;;;;;;4998401;28;20038;-94
2021/03/18 11:39:06;;;;;;;5.10;2.28;;;;;;;;;;4995546;28;20022;-94
2021/03/18 11:41:33;;;;;;;4.88;2.55;;;;;;;;;;4995950;28;20034;-93
2021/03/18 11:43:59;;;;;;;14.90;2.40;;;;;;;;;;4996397;28;20027;-94
2021/03/18 11:46:26;;;;;;;7.40;2.78;;;;;;;;;;4995766;28;20522;-94
2021/03/18 11:48:52;;;;;;;4.65;2.35;;;;;;;;;;4979138;28;20031;-94
2021/03/18 11:51:19;;;;;;;6.18;2.58;;;;;;;;;;4995914;28;20038;-96
2021/03/18 11:53:45;;;;;;;6.85;3.10;;;;;;;;;;4996535;28;20402;-95
2021/03/18 11:56:11;;;;;;;6.30;3.30;;;;;;;;;;4997035;28;20041;-96
2021/03/18 11:58:37;;;;;;;6.00;3.10;;;;;;;;;;4998076;28;20030;-96
2021/03/18 12:01:04;;;;;;;6.90;3.20;;;;;;;;;;4997009;28;20454;-95
2021/03/18 12:03:30;;;;;;;7.05;3.00;;;;;;;;;;5013208;28;20038;-94
2021/03/18 12:05:56;;;;;;;9.77;2.60;;;;;;;;;;5009134;28;20034;-95
2021/03/18 12:08:22;;;;;;;4.72;2.40;;;;;;;;;;5000838;28;20146;-96
2021/03/18 12:10:49;;;;;;;10.50;3.00;;;;;;;;;;4980077;28;20503;-96
2021/03/18 12:13:15;;;;;;;3.55;2.13;;;;;;;;;;4997498;28;20048;-95
2021/03/18 12:20:53;;;;;;;5.82;2.35;;;;;;;;;;5295822;22;20028;-95
2021/03/18 12:23:25;;;;;;;5.18;2.65;;;;;;;;;;5054654;23;20030;-95
2021/03/18 12:25:57;;;;;;;6.47;2.90;;;;;;;;;;5009448;28;20034;-95
2021/03/18 12:28:26;;;;;;;7.28;2.97;;;;;;;;;;5001028;28;20116;-95
2021/03/18 12:30:52;;;;;;;5.72;2.72;;;;;;;;;;5002537;28;20053;-96
2021/03/18 12:33:28;;;;;;;7.63;3.15;;;;;;;;;;5013845;28;20033;-94
2021/03/18 12:35:54;;;;;;;6.30;2.97;;;;;;;;;;5010065;28;20022;-95
2021/03/18 12:38:33;;;;;;;6.40;3.00;;;;;;;;;;5004322;28;20026;-96
2021/03/18 12:40:59;;;;;;;8.75;2.88;;;;;;;;;;5004002;28;20018;-91
2021/03/18 12:43:25;;;;;;;7.22;2.85;;;;;;;;;;4998388;28;20109;-96
2021/03/18 12:45:51;;;;;;;5.45;2.42;;;;;;;;;;4998865;28;20029;-94
2021/03/18 12:48:18;;;;;;;5.88;2.80;;;;;;;;;;4997269;28;20049;-94
2021/03/18 12:50:44;;;;;;;6.13;2.88;;;;;;;;;;5000827;28;20034;-94
2021/03/18 12:53:13;;;;;;;6.63;2.80;;;;;;;;;;5002249;28;20084;-93
2021/03/18 12:55:39;;;;;;;5.38;2.60;;;;;;;;;;5004065;28;20537;-94
2021/03/18 12:58:07;;;;;;;6.07;2.92;;;;;;;;;;5019479;28;20026;-94
2021/03/18 13:00:34;;;;;;;6.95;2.75;;;;;;;;;;5003484;28;20033;-92
2021/03/18 13:03:01;;;;;;;4.65;2.17;;;;;;;;;;5002390;28;20044;-93
2021/03/18 13:05:34;;;;;;;4.72;2.15;;;;;;;;;;5001387;28;20030;-95
2021/03/18 13:08:00;;;;;;;5.50;2.30;;;;;;;;;;4988239;28;20027;-93
2021/03/18 13:10:26;;;;;;;4.28;1.73;;;;;;;;;;4981337;28;20038;-92
2021/03/18 13:12:53;;;;;;;4.45;2.10;;;;;;;;;;4983581;28;20030;-93
2021/03/18 13:15:19;;;;;;;6.57;2.30;;;;;;;;;;5002029;28;20022;-93
2021/03/18 13:17:46;;;;;;;5.18;2.08;;;;;;;;;;5002725;28;20053;-93
2021/03/18 13:23:03;;;;;;;5.72;2.42;;;;;;;;;;5010628;28;20118;-95
2021/03/18 13:25:32;;;;;;;4.75;2.45;;;;;;;;;;5186800;23;20053;-94
2021/03/18 13:27:58;;;;;;;4.03;2.00;;;;;;;;;;5043250;28;20025;-92
2021/03/18 13:30:24;;;;;;;3.42;1.60;;;;;;;;;;5041018;28;20389;-93
2021/03/18 13:32:51;;;;;;;4.13;2.08;;;;;;;;;;5041479;28;20033;-94
2021/03/18 13:35:19;;;;;;;5.05;1.90;;;;;;;;;;5042432;28;20462;-95
2021/03/18 13:37:45;;;;;;;5.63;2.28;;;;;;;;;;5049851;28;20108;-96
2021/03/18 13:40:12;;;;;;;5.50;1.92;;;;;;;;;;5042121;28;20101;-92
2021/03/18 13:42:38;;;;;;;7.80;2.60;;;;;;;;;;5043146;28;20116;-94
2021/03/18 13:45:05;;;;;;;5.65;1.90;;;;;;;;;;5041811;28;20029;-93
2021/03/18 13:47:34;;;;;;;4.63;1.60;;;;;;;;;;5045295;28;20025;-96
2021/03/18 13:50:00;;;;;;;4.63;1.98;;;;;;;;;;5042910;28;20465;-93
2021/03/18 13:52:28;;;;;;;5.70;2.00;;;;;;;;;;5041425;28;20029;-96
2021/03/18 13:54:59;;;;;;;6.03;2.15;;;;;;;;;;5041912;28;20040;-95
2021/03/18 13:57:28;;;;;;;4.47;2.28;;;;;;;;;;5051028;28;20033;-91
2021/03/18 13:59:57;;;;;;;5.65;2.72;;;;;;;;;;5058466;28;20536;-94
2021/03/18 14:02:25;;;;;;;6.82;2.88;;;;;;;;;;5039472;28;20048;-93
2021/03/18 14:04:51;;;;;;;6.30;2.85;;;;;;;;;;5040163;28;20497;-94
2021/03/18 14:07:27;;;;;;;8.45;3.30;;;;;;;;;;5040300;28;20461;-96
2021/03/18 14:09:53;;;;;;;6.80;2.50;;;;;;;;;;5040573;28;20124;-94
2021/03/18 14:12:19;;;;;;;6.30;2.72;;;;;;;;;;5040137;28;20036;-96
2021/03/18 14:14:45;;;;;;;7.25;3.00;;;;;;;;;;5040438;28;20033;-93
2021/03/18 14:17:11;;;;;;;5.50;2.15;;;;;;;;;;5039870;28;20025;-92
2021/03/18 14:19:38;;;;;;;6.50;2.80;;;;;;;;;;5039479;28;20505;-93
2021/03/18 14:22:04;;;;;;;7.97;2.65;;;;;;;;;;5040734;28;20481;-92
2021/03/18 14:24:30;;;;;;;5.97;2.55;;;;;;;;;;5042016;28;20049;-91
2021/03/18 14:26:57;;;;;;;6.90;2.65;;;;;;;;;;5039374;28;20037;-94
2021/03/18 14:29:26;;;;;;;7.05;2.67;;;;;;;;;;5040032;28;20036;-95
2021/03/18 14:31:52;;;;;;;5.47;2.28;;;;;;;;;;5038715;28;20037;-95
2021/03/18 14:34:18;;;;;;;5.25;2.42;;;;;;;;;;5040033;28;20098;-94
2021/03/18 14:36:55;;;;;;;5.05;2.15;;;;;;;;;;5061513;28;20513;-96
2021/03/18 14:39:21;;;;;;;6.57;2.67;;;;;;;;;;5062971;28;20035;-94
2021/03/18 14:41:48;;;;;;;10.32;2.50;;;;;;;;;;5044412;28;20021;-95
2021/03/18 14:44:29;;;;;;;7.65;2.45;;;;;;;;;;5043257;28;20025;-96
2021/03/18 14:46:56;;;;;;;5.88;2.42;;;;;;;;;;5044127;28;20119;-92
2021/03/18 14:49:22;;;;;;;4.82;2.10;;;;;;;;;;5039005;28;20035;-90
2021/03/18 14:51:48;;;;;;;6.20;2.35;;;;;;;;;;5038424;28;20036;-93
2021/03/18 14:54:15;;;;;;;5.63;2.30;;;;;;;;;;5038073;28;20112;-91
2021/03/18 14:56:53;;;;;;;4.85;1.90;;;;;;;;;;5060206;28;20035;-96
2021/03/18 14:59:20;;;;;;;6.20;2.05;;;;;;;;;;5038415;28;20048;-93
2021/03/18 15:01:46;;;;;;;7.05;2.42;;;;;;;;;;5037986;28;20036;-94
2021/03/18 15:04:12;;;;;;;6.85;2.22;;;;;;;;;;5038653;28;20025;-94
2021/03/18 15:06:41;;;;;;;5.28;2.58;;;;;;;;;;5039074;28;20025;-92
2021/03/18 15:09:08;;;;;;;7.15;2.47;;;;;;;;;;5056743;28;20028;-95
2021/03/18 15:11:46;;;;;;;5.50;2.13;;;;;;;;;;5042749;28;20037;-93
2021/03/18 15:15:13;;;;;;;6.10;2.72;;;;;;;;;;5061933;28;20141;-94
2021/03/18 15:17:42;;;;;;;6.07;2.28;;;;;;;;;;5230421;22;20103;-96